Time,TemperatureF,DewpointF,PressureIn,WindDirection,WindDirectionDegrees,WindSpeedMPH,WindSpeedGustMPH,Humidity,HourlyPrecipIn,Conditions,Clouds,dailyrainin,SoftwareType,DateUTC
2013-04-17 00:00:00,50.9,35.7,30.15,NE,45,1.6,3.5,56,0.00,OVC,FEW,0.00,WeatherDisplay:10.37,2013-04-17 05:00:00,
2013-04-17 00:05:00,50.9,35.7,30.15,SE,135,1.6,3.5,56,0.00,OVC,FEW,0.00,WeatherDisplay:10.37,2013-04-17 05:05:00,
2013-04-17 00:11:00,50.9,35.7,30.15,North,0,0.7,3.5,56,0.00,OVC,FEW,0.00,WeatherDisplay:10.37,2013-04-17 05:11:00,
2013-04-17 00:16:00,50.9,35.7,30.16,NE,45,2.2,3.5,56,0.00,OVC,FEW,0.00,WeatherDisplay:10.37,2013-04-17 05:16:00,
2013-04-17 00:22:00,50.7,35.6,30.15,East,90,3.1,5.8,56,0.00,OVC,FEW,0.00,WeatherDisplay:10.37,2013-04-17 05:22:00,
2013-04-17 00:28:00,50.9,35.7,30.16,NE,45,2.2,6.0,56,0.00,OVC,FEW,0.00,WeatherDisplay:10.37,2013-04-17 05:28:00,
2013-04-17 00:33:00,50.9,35.7,30.16,NE,45,2.2,5.8,56,0.00,OVC,FEW,0.00,WeatherDisplay:10.37,2013-04-17 05:33:00,
2013-04-17 00:39:00,50.9,35.7,30.16,East,90,2.2,5.8,56,0.00,OVC,FEW,0.00,WeatherDisplay:10.37,2013-04-17 05:39:00,
2013-04-17 00:44:00,50.9,36.2,30.15,NE,45,3.1,8.1,57,0.00,OVC,FEW,0.00,WeatherDisplay:10.37,2013-04-17 05:44:00,
2013-04-17 00:50:00,50.7,36.5,30.15,East,90,3.1,8.1,58,0.00,OVC,FEW,0.00,WeatherDisplay:10.37,2013-04-17 05:50:00,
2013-04-17 00:56:00,50.7,37.3,30.17,NE,45,4.5,9.2,60,0.00,OVC,FEW,0.00,WeatherDisplay:10.37,2013-04-17 05:56:00,
2013-04-17 01:01:00,50.7,37.8,30.16,East,90,2.2,6.9,61,0.00,OVC,FEW,0.00,WeatherDisplay:10.37,2013-04-17 06:01:00,
2013-04-17 01:07:00,50.5,37.2,30.15,NE,45,3.8,13.8,60,0.00,OVC,FEW,0.00,WeatherDisplay:10.37,2013-04-17 06:07:00,
2013-04-17 01:12:00,50.2,37.2,30.15,NE,45,3.1,8.1,61,0.00,OVC,FEW,0.00,WeatherDisplay:10.37,2013-04-17 06:12:00,
2013-04-17 01:18:00,50.2,37.7,30.16,East,90,3.1,5.8,62,0.00,OVC,FEW,0.00,WeatherDisplay:10.37,2013-04-17 06:18:00,
2013-04-17 01:24:00,49.8,38.1,30.17,NE,45,3.1,6.0,64,0.00,OVC,FEW,0.00,WeatherDisplay:10.37,2013-04-17 06:24:00,
2013-04-17 01:29:00,49.5,38.2,30.17,SSW,202,3.1,10.4,65,0.00,OVC,FEW,0.00,WeatherDisplay:10.37,2013-04-17 06:29:00,
2013-04-17 01:35:00,49.3,38.0,30.17,East,90,4.5,11.5,65,0.00,OVC,FEW,0.00,WeatherDisplay:10.37,2013-04-17 06:35:00,
2013-04-17 01:40:00,48.9,38.1,30.17,East,90,3.1,10.4,66,0.00,OVC,FEW,0.00,WeatherDisplay:10.37,2013-04-17 06:40:00,
2013-04-17 01:46:00,48.4,37.2,30.16,East,90,7.6,11.5,65,0.00,OVC,FEW,0.00,WeatherDisplay:10.37,2013-04-17 06:46:00,
2013-04-17 01:52:00,48.0,37.2,30.16,NE,45,5.4,10.4,66,0.00,OVC,FEW,0.00,WeatherDisplay:10.37,2013-04-17 06:52:00,
2013-04-17 01:57:00,47.8,37.0,30.17,East,90,5.4,15.0,66,0.00,OVC,FEW,0.00,WeatherDisplay:10.37,2013-04-17 06:57:00,
2013-04-17 02:03:00,47.7,37.2,30.17,East,90,2.2,3.8,67,0.00,OVC,FEW,0.00,WeatherDisplay:10.37,2013-04-17 07:03:00,
2013-04-17 02:08:00,47.5,37.4,30.17,East,90,4.5,4.5,68,0.00,OVC,FEW,0.00,WeatherDisplay:10.37,2013-04-17 07:08:00,
2013-04-17 02:14:00,47.3,37.6,30.17,North,0,3.1,8.1,69,0.00,OVC,FEW,0.00,WeatherDisplay:10.37,2013-04-17 07:14:00,
2013-04-17 02:20:00,46.9,37.3,30.17,East,90,6.0,9.2,69,0.00,OVC,FEW,0.00,WeatherDisplay:10.37,2013-04-17 07:20:00,
2013-04-17 02:25:00,46.6,37.3,30.17,NE,45,3.8,8.1,70,0.00,OVC,FEW,0.00,WeatherDisplay:10.37,2013-04-17 07:25:00,
2013-04-17 02:32:00,46.6,37.0,30.17,East,90,3.1,10.4,69,0.00,OVC,FEW,0.00,WeatherDisplay:10.37,2013-04-17 07:32:00,
2013-04-17 02:37:00,46.2,36.2,30.17,NE,45,3.1,6.9,68,0.00,OVC,FEW,0.00,WeatherDisplay:10.37,2013-04-17 07:37:00,
2013-04-17 02:43:00,46.2,35.1,30.17,East,90,6.0,8.1,65,0.00,OVC,FEW,0.00,WeatherDisplay:10.37,2013-04-17 07:43:00,
2013-04-17 02:48:00,45.9,34.0,30.17,NE,45,3.1,11.5,63,0.00,OVC,FEW,0.00,WeatherDisplay:10.37,2013-04-17 07:48:00,
2013-04-17 02:54:00,45.9,34.0,30.15,East,90,5.4,12.7,63,0.00,OVC,FEW,0.00,WeatherDisplay:10.37,2013-04-17 07:54:00,
2013-04-17 03:00:00,45.7,33.8,30.17,South,180,3.1,6.0,63,0.00,OVC,FEW,0.00,WeatherDisplay:10.37,2013-04-17 08:00:00,
2013-04-17 03:05:00,45.7,33.8,30.17,ESE,112,3.1,8.1,63,0.00,OVC,FEW,0.00,WeatherDisplay:10.37,2013-04-17 08:05:00,
2013-04-17 03:11:00,45.5,32.8,30.16,East,90,4.5,8.1,61,0.00,OVC,FEW,0.00,WeatherDisplay:10.37,2013-04-17 08:11:00,
2013-04-17 03:16:00,45.5,32.8,30.15,SE,135,3.1,9.2,61,0.00,OVC,FEW,0.00,WeatherDisplay:10.37,2013-04-17 08:16:00,
2013-04-17 03:22:00,45.3,33.1,30.15,East,90,3.8,6.9,62,0.00,OVC,FEW,0.00,WeatherDisplay:10.37,2013-04-17 08:22:00,
2013-04-17 03:28:00,45.3,33.1,30.16,NE,45,3.8,7.6,62,0.00,OVC,FEW,0.00,WeatherDisplay:10.37,2013-04-17 08:28:00,
2013-04-17 03:33:00,45.3,32.7,30.14,East,90,5.4,12.7,61,0.00,OVC,FEW,0.00,WeatherDisplay:10.37,2013-04-17 08:33:00,
2013-04-17 03:39:00,45.3,33.1,30.14,East,90,5.4,12.7,62,0.00,OVC,FEW,0.00,WeatherDisplay:10.37,2013-04-17 08:39:00,
2013-04-17 03:44:00,45.1,32.9,30.14,East,90,6.0,11.5,62,0.00,OVC,FEW,0.00,WeatherDisplay:10.37,2013-04-17 08:44:00,
2013-04-17 03:50:00,45.1,33.3,30.13,East,90,2.2,5.8,63,0.00,OVC,FEW,0.00,WeatherDisplay:10.37,2013-04-17 08:50:00,
2013-04-17 03:56:00,45.1,34.1,30.14,NE,45,2.2,11.5,65,0.00,OVC,FEW,0.00,WeatherDisplay:10.37,2013-04-17 08:56:00,
2013-04-17 04:01:00,45.0,33.9,30.14,South,180,3.8,10.4,65,0.00,OVC,FEW,0.00,WeatherDisplay:10.37,2013-04-17 09:01:00,
2013-04-17 04:07:00,45.0,33.9,30.14,NE,45,3.1,8.1,65,0.00,OVC,FEW,0.00,WeatherDisplay:10.37,2013-04-17 09:07:00,
2013-04-17 04:12:00,45.0,33.9,30.14,NE,45,3.1,8.1,65,0.00,OVC,FEW,0.00,WeatherDisplay:10.37,2013-04-17 09:12:00,
2013-04-17 04:18:00,45.0,33.9,30.14,SE,135,1.6,4.6,65,0.00,OVC,FEW,0.00,WeatherDisplay:10.37,2013-04-17 09:18:00,
2013-04-17 04:24:00,44.8,33.7,30.13,ENE,68,3.1,4.6,65,0.00,OVC,FEW,0.00,WeatherDisplay:10.37,2013-04-17 09:24:00,
2013-04-17 04:29:00,44.8,33.3,30.13,NE,45,3.1,8.1,64,0.00,OVC,FEW,0.00,WeatherDisplay:10.37,2013-04-17 09:29:00,
2013-04-17 04:35:00,44.8,33.3,30.12,East,90,7.6,11.4,64,0.00,OVC,FEW,0.00,WeatherDisplay:10.37,2013-04-17 09:35:00,
2013-04-17 04:40:00,44.6,32.8,30.12,East,90,3.1,9.2,63,0.00,OVC,FEW,0.00,WeatherDisplay:10.37,2013-04-17 09:40:00,
2013-04-17 04:46:00,44.8,32.9,30.11,North,0,5.4,8.3,63,0.00,OVC,FEW,0.00,WeatherDisplay:10.37,2013-04-17 09:46:00,
2013-04-17 04:52:00,44.6,32.0,30.12,NE,45,5.4,9.2,61,0.00,OVC,FEW,0.00,WeatherDisplay:10.37,2013-04-17 09:52:00,
2013-04-17 04:57:00,44.6,31.6,30.12,ESE,112,4.5,8.1,60,0.00,OVC,FEW,0.00,WeatherDisplay:10.37,2013-04-17 09:57:00,
2013-04-17 05:03:00,44.6,31.6,30.12,ENE,68,3.8,9.2,60,0.00,OVC,FEW,0.00,WeatherDisplay:10.37,2013-04-17 10:03:00,
2013-04-17 05:08:00,44.6,31.1,30.12,East,90,3.8,8.1,59,0.00,OVC,FEW,0.00,WeatherDisplay:10.37,2013-04-17 10:08:00,
2013-04-17 05:14:00,44.6,30.7,30.11,East,90,6.9,13.8,58,0.00,OVC,FEW,0.00,WeatherDisplay:10.37,2013-04-17 10:14:00,
2013-04-17 05:20:00,44.6,31.1,30.15,East,90,2.2,6.9,59,0.00,OVC,FEW,0.00,WeatherDisplay:10.37,2013-04-17 10:20:00,
2013-04-17 05:25:00,44.4,32.6,30.11,NE,45,4.5,8.1,63,0.00,OVC,FEW,0.00,WeatherDisplay:10.37,2013-04-17 10:25:00,
2013-04-17 05:31:00,43.9,33.3,30.13,NE,45,3.1,4.6,66,0.01,RA,FEW,0.01,WeatherDisplay:10.37,2013-04-17 10:31:00,
2013-04-17 05:36:00,43.5,33.3,30.15,North,0,0.7,5.8,67,0.01,OVC,FEW,0.01,WeatherDisplay:10.37,2013-04-17 10:36:00,
2013-04-17 05:42:00,43.5,33.3,30.16,ESE,112,2.2,5.4,67,0.01,OVC,FEW,0.01,WeatherDisplay:10.37,2013-04-17 10:42:00,
2013-04-17 05:48:00,43.5,33.3,30.15,NE,45,5.4,8.1,67,0.01,OVC,FEW,0.01,WeatherDisplay:10.37,2013-04-17 10:48:00,
2013-04-17 05:53:00,43.2,33.7,30.11,SE,135,3.1,10.4,69,0.05,RA,FEW,0.05,WeatherDisplay:10.37,2013-04-17 10:53:00,
2013-04-17 05:59:00,42.3,34.6,30.09,NE,45,6.0,9.2,74,0.06,RA,FEW,0.06,WeatherDisplay:10.37,2013-04-17 10:59:00,
2013-04-17 06:04:00,42.1,35.1,30.10,East,90,3.1,8.1,76,0.06,RA,FEW,0.06,WeatherDisplay:10.37,2013-04-17 11:04:00,
2013-04-17 06:10:00,42.1,35.1,30.10,NE,45,3.8,9.2,76,0.06,OVC,FEW,0.06,WeatherDisplay:10.37,2013-04-17 11:10:00,
2013-04-17 06:16:00,42.3,35.6,30.17,West,270,2.2,4.5,77,0.06,OVC,FEW,0.06,WeatherDisplay:10.37,2013-04-17 11:16:00,
2013-04-17 06:21:00,42.1,35.1,30.10,ENE,68,4.5,15.0,76,0.07,RA,FEW,0.07,WeatherDisplay:10.37,2013-04-17 11:21:00,
2013-04-17 06:27:00,41.4,35.3,30.14,SSE,158,1.6,3.5,79,0.12,RA,FEW,0.13,WeatherDisplay:10.37,2013-04-17 11:27:00,
2013-04-17 06:32:00,41.2,35.8,30.15,NE,45,0.0,11.5,81,0.13,RA,FEW,0.14,WeatherDisplay:10.37,2013-04-17 11:32:00,
2013-04-17 06:38:00,41.0,36.2,30.10,East,90,6.9,12.1,83,0.15,RA,FEW,0.18,WeatherDisplay:10.37,2013-04-17 11:38:00,
2013-04-17 06:44:00,40.6,36.2,30.15,East,90,0.0,3.5,84,0.20,RA,FEW,0.21,WeatherDisplay:10.37,2013-04-17 11:44:00,
2013-04-17 06:49:00,40.6,36.2,30.10,NE,45,3.8,6.9,84,0.20,RA,FEW,0.21,WeatherDisplay:10.37,2013-04-17 11:49:00,
2013-04-17 06:55:00,40.5,36.0,30.11,SSE,158,3.8,8.1,84,0.19,RA,FEW,0.24,WeatherDisplay:10.37,2013-04-17 11:55:00,
2013-04-17 07:00:00,40.5,36.0,30.07,East,90,5.4,12.7,84,0.18,RA,FEW,0.24,WeatherDisplay:10.37,2013-04-17 12:00:00,
2013-04-17 07:06:00,40.6,36.2,30.11,SE,135,3.1,8.1,84,0.18,OVC,FEW,0.24,WeatherDisplay:10.37,2013-04-17 12:06:00,
2013-04-17 07:12:00,40.8,36.4,30.07,East,90,3.8,6.9,84,0.18,OVC,FEW,0.24,WeatherDisplay:10.37,2013-04-17 12:12:00,
2013-04-17 07:17:00,40.8,36.4,30.07,East,90,3.8,9.2,84,0.18,OVC,FEW,0.24,WeatherDisplay:10.37,2013-04-17 12:17:00,
2013-04-17 07:23:00,40.8,36.4,30.06,NE,45,4.5,10.7,84,0.17,OVC,FEW,0.24,WeatherDisplay:10.37,2013-04-17 12:23:00,
2013-04-17 07:28:00,41.0,36.5,30.07,East,90,4.5,8.1,84,0.09,OVC,FEW,0.24,WeatherDisplay:10.37,2013-04-17 12:28:00,
2013-04-17 07:34:00,41.2,36.7,30.07,East,90,3.8,6.9,84,0.08,OVC,FEW,0.24,WeatherDisplay:10.37,2013-04-17 12:34:00,
2013-04-17 07:40:00,41.4,36.9,30.06,East,90,5.4,9.2,84,0.06,OVC,FEW,0.24,WeatherDisplay:10.37,2013-04-17 12:40:00,
2013-04-17 07:45:00,41.4,36.9,30.06,East,90,5.4,8.3,84,0.02,OVC,FEW,0.24,WeatherDisplay:10.37,2013-04-17 12:45:00,
2013-04-17 07:51:00,41.7,37.2,30.05,East,90,3.1,10.4,84,0.02,OVC,FEW,0.24,WeatherDisplay:10.37,2013-04-17 12:51:00,
2013-04-17 07:56:00,41.9,37.1,30.05,North,0,7.6,13.7,83,0.00,OVC,FEW,0.24,WeatherDisplay:10.37,2013-04-17 12:56:00,
2013-04-17 08:02:00,42.1,37.0,30.06,East,90,3.1,9.2,82,0.00,OVC,FEW,0.24,WeatherDisplay:10.37,2013-04-17 13:02:00,
2013-04-17 08:08:00,42.3,36.8,30.06,East,90,3.8,9.8,81,0.00,OVC,FEW,0.24,WeatherDisplay:10.37,2013-04-17 13:08:00,
2013-04-17 08:13:00,42.4,37.0,30.12,NW,315,3.8,8.1,81,0.00,OVC,FEW,0.24,WeatherDisplay:10.37,2013-04-17 13:13:00,
2013-04-17 08:19:00,42.6,36.9,30.09,NE,45,6.0,11.4,80,0.00,OVC,FEW,0.24,WeatherDisplay:10.37,2013-04-17 13:19:00,
2013-04-17 08:24:00,42.6,36.9,30.08,NE,45,6.0,10.4,80,0.00,OVC,FEW,0.24,WeatherDisplay:10.37,2013-04-17 13:24:00,
2013-04-17 08:30:00,42.4,36.7,30.08,South,180,2.2,10.4,80,0.00,OVC,FEW,0.24,WeatherDisplay:10.37,2013-04-17 13:30:00,
2013-04-17 08:36:00,42.6,36.9,30.10,NNE,22,3.8,8.3,80,0.00,OVC,FEW,0.24,WeatherDisplay:10.37,2013-04-17 13:36:00,
2013-04-17 08:41:00,42.6,37.2,30.07,NW,315,5.4,9.2,81,0.00,OVC,FEW,0.24,WeatherDisplay:10.37,2013-04-17 13:41:00,
2013-04-17 08:47:00,42.6,37.2,30.05,East,90,4.5,8.1,81,0.00,OVC,FEW,0.24,WeatherDisplay:10.37,2013-04-17 13:47:00,
2013-04-17 08:52:00,42.4,37.0,30.05,SE,135,3.8,10.4,81,0.00,OVC,FEW,0.24,WeatherDisplay:10.37,2013-04-17 13:52:00,
2013-04-17 08:58:00,42.4,37.3,30.06,East,90,2.2,6.9,82,0.01,RA,FEW,0.25,WeatherDisplay:10.37,2013-04-17 13:58:00,
2013-04-17 09:04:00,41.7,37.2,30.04,East,90,6.9,9.2,84,0.02,RA,FEW,0.26,WeatherDisplay:10.37,2013-04-17 14:04:00,
2013-04-17 09:09:00,41.7,37.2,30.03,NE,45,5.4,11.4,84,0.02,OVC,FEW,0.26,WeatherDisplay:10.37,2013-04-17 14:09:00,
2013-04-17 09:15:00,41.5,37.1,30.04,East,90,2.2,10.4,84,0.02,OVC,FEW,0.26,WeatherDisplay:10.37,2013-04-17 14:15:00,
2013-04-17 09:20:00,41.5,37.1,30.03,ESE,112,6.9,11.4,84,0.02,OVC,FEW,0.26,WeatherDisplay:10.37,2013-04-17 14:20:00,
2013-04-17 09:26:00,41.5,37.1,30.03,NE,45,6.0,12.7,84,0.04,RA,FEW,0.27,WeatherDisplay:10.37,2013-04-17 14:26:00,
2013-04-17 09:32:00,41.7,37.2,30.02,East,90,4.5,15.0,84,0.04,RA,FEW,0.27,WeatherDisplay:10.37,2013-04-17 14:32:00,
2013-04-17 09:37:00,41.7,37.2,30.01,East,90,4.5,12.7,84,0.04,OVC,FEW,0.27,WeatherDisplay:10.37,2013-04-17 14:37:00,
2013-04-17 09:43:00,41.9,37.4,30.01,East,90,3.1,9.2,84,0.04,OVC,FEW,0.27,WeatherDisplay:10.37,2013-04-17 14:43:00,
2013-04-17 09:48:00,41.9,37.4,30.01,East,90,3.1,11.5,84,0.04,OVC,FEW,0.27,WeatherDisplay:10.37,2013-04-17 14:48:00,
2013-04-17 09:54:00,41.9,37.4,30.02,South,180,5.4,10.4,84,0.04,OVC,FEW,0.27,WeatherDisplay:10.37,2013-04-17 14:54:00,
2013-04-17 10:00:00,41.9,37.4,29.99,NE,45,4.5,10.4,84,0.01,OVC,FEW,0.27,WeatherDisplay:10.37,2013-04-17 15:00:00,
2013-04-17 10:05:00,42.1,37.6,30.00,NE,45,3.1,10.4,84,0.01,OVC,FEW,0.27,WeatherDisplay:10.37,2013-04-17 15:05:00,
2013-04-17 10:11:00,42.1,37.6,29.99,SE,135,3.8,6.9,84,0.01,OVC,FEW,0.27,WeatherDisplay:10.37,2013-04-17 15:11:00,
2013-04-17 10:16:00,42.3,37.8,29.99,East,90,5.4,10.4,84,0.01,OVC,FEW,0.27,WeatherDisplay:10.37,2013-04-17 15:16:00,
2013-04-17 10:22:00,42.3,37.8,29.99,NE,45,4.5,15.0,84,0.01,OVC,FEW,0.27,WeatherDisplay:10.37,2013-04-17 15:22:00,
2013-04-17 10:28:00,42.3,37.8,29.99,East,90,1.6,9.2,84,0.00,OVC,FEW,0.27,WeatherDisplay:10.37,2013-04-17 15:28:00,
2013-04-17 10:33:00,42.3,37.8,30.00,NE,45,4.5,8.3,84,0.00,OVC,FEW,0.27,WeatherDisplay:10.37,2013-04-17 15:33:00,
2013-04-17 10:39:00,42.4,37.9,30.00,East,90,6.9,14.5,84,0.00,OVC,FEW,0.27,WeatherDisplay:10.37,2013-04-17 15:39:00,
2013-04-17 10:44:00,42.4,37.9,30.00,NE,45,4.5,9.2,84,0.00,OVC,FEW,0.27,WeatherDisplay:10.37,2013-04-17 15:44:00,
2013-04-17 10:50:00,42.6,38.1,29.99,NE,45,6.9,12.7,84,0.00,OVC,FEW,0.27,WeatherDisplay:10.37,2013-04-17 15:50:00,
2013-04-17 10:56:00,42.4,37.9,30.00,NE,45,4.5,10.4,84,0.00,OVC,FEW,0.27,WeatherDisplay:10.37,2013-04-17 15:56:00,
2013-04-17 11:01:00,42.4,37.9,29.99,East,90,3.8,11.5,84,0.00,OVC,FEW,0.27,WeatherDisplay:10.37,2013-04-17 16:01:00,
2013-04-17 11:07:00,42.3,37.8,29.94,East,90,8.3,15.2,84,0.00,OVC,FEW,0.27,WeatherDisplay:10.37,2013-04-17 16:07:00,
2013-04-17 11:12:00,42.1,37.6,29.93,East,90,5.4,15.0,84,0.00,OVC,FEW,0.27,WeatherDisplay:10.37,2013-04-17 16:12:00,
2013-04-17 11:18:00,41.9,37.4,29.93,NE,45,5.4,11.5,84,0.00,OVC,FEW,0.27,WeatherDisplay:10.37,2013-04-17 16:18:00,
2013-04-17 11:24:00,42.1,37.6,29.95,East,90,8.3,13.7,84,0.00,OVC,FEW,0.27,WeatherDisplay:10.37,2013-04-17 16:24:00,
2013-04-17 11:29:00,42.1,37.6,29.94,East,90,5.4,10.4,84,0.02,RA,FEW,0.30,WeatherDisplay:10.37,2013-04-17 16:29:00,
2013-04-17 11:35:00,41.9,37.4,29.93,NE,45,3.8,10.4,84,0.05,RA,FEW,0.32,WeatherDisplay:10.37,2013-04-17 16:35:00,
2013-04-17 11:40:00,41.9,37.4,29.98,SSW,202,3.1,9.2,84,0.05,OVC,FEW,0.32,WeatherDisplay:10.37,2013-04-17 16:40:00,
2013-04-17 11:46:00,42.3,37.8,30.03,North,0,4.5,10.7,84,0.07,RA,FEW,0.35,WeatherDisplay:10.37,2013-04-17 16:46:00,
2013-04-17 11:52:00,42.3,37.8,29.99,East,90,5.4,10.4,84,0.08,RA,FEW,0.35,WeatherDisplay:10.37,2013-04-17 16:52:00,
2013-04-17 11:57:00,42.1,37.6,30.02,West,270,3.1,9.2,84,0.18,RA,FEW,0.45,WeatherDisplay:10.37,2013-04-17 16:57:00,
2013-04-17 12:03:00,42.1,37.6,30.05,NW,315,2.2,6.9,84,0.20,RA,FEW,0.47,WeatherDisplay:10.37,2013-04-17 17:03:00,
2013-04-17 12:08:00,42.1,37.6,30.03,NW,315,5.4,7.6,84,0.21,RA,FEW,0.48,WeatherDisplay:10.37,2013-04-17 17:08:00,
2013-04-17 12:14:00,42.1,37.6,30.02,North,0,0.7,5.8,84,0.25,RA,FEW,0.52,WeatherDisplay:10.37,2013-04-17 17:14:00,
2013-04-17 12:20:00,42.1,37.6,30.03,North,0,5.4,9.2,84,0.26,RA,FEW,0.53,WeatherDisplay:10.37,2013-04-17 17:20:00,
2013-04-17 12:25:00,42.3,37.8,30.06,West,270,3.8,8.1,84,0.27,RA,FEW,0.54,WeatherDisplay:10.37,2013-04-17 17:25:00,
2013-04-17 12:32:00,42.1,37.6,30.11,West,270,4.5,8.1,84,0.24,RA,FEW,0.56,WeatherDisplay:10.37,2013-04-17 17:32:00,
2013-04-17 12:37:00,42.3,37.8,30.15,NW,315,5.4,10.4,84,0.26,RA,FEW,0.58,WeatherDisplay:10.37,2013-04-17 17:37:00,
2013-04-17 12:43:00,42.1,37.6,30.10,North,0,6.0,12.7,84,0.31,RA,FEW,0.63,WeatherDisplay:10.37,2013-04-17 17:43:00,
2013-04-17 12:48:00,41.9,37.4,30.09,NW,315,8.3,17.3,84,0.34,RA,FEW,0.71,WeatherDisplay:10.37,2013-04-17 17:48:00,
2013-04-17 12:54:00,41.7,37.2,30.03,East,90,4.5,17.3,84,0.38,RA,FEW,0.73,WeatherDisplay:10.37,2013-04-17 17:54:00,
2013-04-17 13:00:00,41.7,37.2,30.01,East,90,4.5,11.5,84,0.35,RA,FEW,0.81,WeatherDisplay:10.37,2013-04-17 18:00:00,
2013-04-17 13:05:00,41.7,37.2,30.02,NE,45,4.5,8.1,84,0.34,RA,FEW,0.83,WeatherDisplay:10.37,2013-04-17 18:05:00,
2013-04-17 13:11:00,41.9,37.4,29.97,NE,45,4.5,11.5,84,0.37,RA,FEW,0.85,WeatherDisplay:10.37,2013-04-17 18:11:00,
2013-04-17 13:16:00,41.9,37.4,29.98,East,90,5.4,10.4,84,0.34,RA,FEW,0.86,WeatherDisplay:10.37,2013-04-17 18:16:00,
2013-04-17 13:22:00,41.9,37.4,29.99,East,90,3.8,8.1,84,0.33,RA,FEW,0.86,WeatherDisplay:10.37,2013-04-17 18:22:00,
2013-04-17 13:28:00,42.1,37.6,29.96,NE,45,5.4,9.2,84,0.32,RA,FEW,0.89,WeatherDisplay:10.37,2013-04-17 18:28:00,
2013-04-17 13:33:00,42.3,37.8,29.96,East,90,4.5,10.4,84,0.34,RA,FEW,0.90,WeatherDisplay:10.37,2013-04-17 18:33:00,
2013-04-17 13:39:00,42.3,37.8,29.95,ENE,68,6.0,10.4,84,0.32,RA,FEW,0.90,WeatherDisplay:10.37,2013-04-17 18:39:00,
2013-04-17 13:44:00,42.6,38.1,29.94,East,90,3.8,9.8,84,0.28,OVC,FEW,0.90,WeatherDisplay:10.37,2013-04-17 18:44:00,
2013-04-17 13:50:00,42.6,38.1,29.94,NE,45,4.5,8.3,84,0.20,RA,FEW,0.90,WeatherDisplay:10.37,2013-04-17 18:50:00,
2013-04-17 13:56:00,43.2,38.7,29.95,NE,45,2.2,3.8,84,0.18,RA,FEW,0.91,WeatherDisplay:10.37,2013-04-17 18:56:00,
2013-04-17 14:01:00,43.5,39.0,29.96,East,90,3.1,6.9,84,0.12,RA,FEW,0.92,WeatherDisplay:10.37,2013-04-17 19:01:00,
2013-04-17 14:07:00,43.5,39.0,29.93,NE,45,4.5,9.2,84,0.09,RA,FEW,0.92,WeatherDisplay:10.37,2013-04-17 19:07:00,
2013-04-17 14:12:00,43.7,39.2,29.93,East,90,5.4,12.7,84,0.08,OVC,FEW,0.92,WeatherDisplay:10.37,2013-04-17 19:12:00,
2013-04-17 14:18:00,43.7,39.2,29.95,SE,135,3.1,10.4,84,0.08,RA,FEW,0.93,WeatherDisplay:10.37,2013-04-17 19:18:00,
2013-04-17 14:24:00,43.9,39.4,30.01,SW,225,3.8,6.0,84,0.07,RA,FEW,0.93,WeatherDisplay:10.37,2013-04-17 19:24:00,
2013-04-17 14:29:00,43.9,39.4,30.03,SSE,158,2.2,5.8,84,0.06,OVC,FEW,0.93,WeatherDisplay:10.37,2013-04-17 19:29:00,
2013-04-17 14:35:00,43.9,39.4,30.00,East,90,0.7,5.8,84,0.05,RA,FEW,0.94,WeatherDisplay:10.37,2013-04-17 19:35:00,
2013-04-17 14:40:00,43.9,39.4,29.94,East,90,4.5,9.2,84,0.07,RA,FEW,0.97,WeatherDisplay:10.37,2013-04-17 19:40:00,
2013-04-17 14:46:00,43.7,39.2,29.90,NE,45,5.4,13.0,84,0.09,RA,FEW,0.99,WeatherDisplay:10.37,2013-04-17 19:46:00,
2013-04-17 14:52:00,43.7,39.2,29.93,East,90,2.2,11.5,84,0.11,RA,FEW,1.00,WeatherDisplay:10.37,2013-04-17 19:52:00,
2013-04-17 14:57:00,43.7,39.2,29.93,NE,45,2.2,6.9,84,0.08,RA,FEW,1.00,WeatherDisplay:10.37,2013-04-17 19:57:00,
2013-04-17 15:03:00,43.9,39.4,29.96,SE,135,1.6,4.6,84,0.08,OVC,FEW,1.00,WeatherDisplay:10.37,2013-04-17 20:03:00,
2013-04-17 15:08:00,44.1,39.5,29.98,North,0,1.6,5.8,84,0.09,RA,FEW,1.02,WeatherDisplay:10.37,2013-04-17 20:08:00,
2013-04-17 15:14:00,44.1,39.5,29.99,South,180,2.2,5.8,84,0.11,RA,FEW,1.03,WeatherDisplay:10.37,2013-04-17 20:14:00,
2013-04-17 15:20:00,44.1,39.5,29.95,East,90,0.7,6.9,84,0.09,RA,FEW,1.04,WeatherDisplay:10.37,2013-04-17 20:20:00,
2013-04-17 15:25:00,44.1,39.5,29.93,SE,135,2.2,5.8,84,0.11,RA,FEW,1.05,WeatherDisplay:10.37,2013-04-17 20:25:00,
2013-04-17 15:32:00,44.1,39.5,29.91,NE,45,1.6,3.5,84,0.12,RA,FEW,1.05,WeatherDisplay:10.37,2013-04-17 20:32:00,
2013-04-17 15:37:00,44.4,39.9,29.92,East,90,3.1,6.0,84,0.11,RA,FEW,1.06,WeatherDisplay:10.37,2013-04-17 20:37:00,
2013-04-17 15:43:00,44.4,39.9,29.91,NE,45,1.6,5.8,84,0.08,RA,FEW,1.06,WeatherDisplay:10.37,2013-04-17 20:43:00,
2013-04-17 15:48:00,44.6,40.1,29.91,East,90,3.8,8.1,84,0.07,OVC,FEW,1.06,WeatherDisplay:10.37,2013-04-17 20:48:00,
2013-04-17 15:54:00,44.6,40.1,29.90,South,180,2.2,8.1,84,0.06,OVC,FEW,1.06,WeatherDisplay:10.37,2013-04-17 20:54:00,
2013-04-17 16:00:00,44.8,40.2,29.90,SE,135,3.8,6.9,84,0.07,RA,FEW,1.07,WeatherDisplay:10.37,2013-04-17 21:00:00,
2013-04-17 16:05:00,44.8,40.2,29.90,SE,135,3.1,6.9,84,0.08,RA,FEW,1.09,WeatherDisplay:10.37,2013-04-17 21:05:00,
2013-04-17 16:11:00,45.0,40.4,29.88,East,90,5.4,10.7,84,0.07,RA,FEW,1.10,WeatherDisplay:10.37,2013-04-17 21:11:00,
2013-04-17 16:16:00,44.8,40.2,29.88,SE,135,2.2,5.8,84,0.08,RA,FEW,1.11,WeatherDisplay:10.37,2013-04-17 21:16:00,
2013-04-17 16:22:00,44.8,40.2,29.86,NE,45,3.8,9.2,84,0.09,RA,FEW,1.13,WeatherDisplay:10.37,2013-04-17 21:22:00,
2013-04-17 16:28:00,44.6,40.1,29.82,SE,135,3.8,12.7,84,0.09,RA,FEW,1.16,WeatherDisplay:10.37,2013-04-17 21:28:00,
2013-04-17 16:33:00,44.6,40.1,29.80,East,90,7.6,17.3,84,0.12,RA,FEW,1.17,WeatherDisplay:10.37,2013-04-17 21:33:00,
2013-04-17 16:39:00,44.8,40.2,29.81,SE,135,6.0,13.0,84,0.11,RA,FEW,1.17,WeatherDisplay:10.37,2013-04-17 21:39:00,
2013-04-17 16:44:00,45.0,40.4,29.83,East,90,0.7,10.4,84,0.12,RA,FEW,1.18,WeatherDisplay:10.37,2013-04-17 21:44:00,
2013-04-17 16:50:00,45.0,40.4,29.81,East,90,3.8,6.9,84,0.12,RA,FEW,1.18,WeatherDisplay:10.37,2013-04-17 21:50:00,
2013-04-17 16:56:00,45.3,40.8,29.83,SSE,158,2.2,9.2,84,0.12,OVC,FEW,1.18,WeatherDisplay:10.37,2013-04-17 21:56:00,
2013-04-17 17:01:00,45.5,40.9,29.83,East,90,3.1,6.9,84,0.11,OVC,FEW,1.18,WeatherDisplay:10.37,2013-04-17 22:01:00,
2013-04-17 17:07:00,45.5,40.9,29.82,NE,45,3.8,8.1,84,0.11,RA,FEW,1.19,WeatherDisplay:10.37,2013-04-17 22:07:00,
2013-04-17 17:12:00,45.7,41.1,29.83,South,180,3.1,5.8,84,0.09,RA,FEW,1.19,WeatherDisplay:10.37,2013-04-17 22:12:00,
2013-04-17 17:18:00,45.5,40.9,29.85,East,90,2.2,10.4,84,0.08,OVC,FEW,1.19,WeatherDisplay:10.37,2013-04-17 22:18:00,
2013-04-17 17:24:00,45.5,40.9,29.85,ESE,112,3.1,5.8,84,0.06,OVC,FEW,1.19,WeatherDisplay:10.37,2013-04-17 22:24:00,
2013-04-17 17:29:00,45.3,40.8,29.85,SE,135,1.6,3.5,84,0.05,OVC,FEW,1.19,WeatherDisplay:10.37,2013-04-17 22:29:00,
2013-04-17 17:35:00,45.3,40.8,29.88,ESE,112,1.6,5.8,84,0.04,RA,FEW,1.20,WeatherDisplay:10.37,2013-04-17 22:35:00,
2013-04-17 17:40:00,45.3,40.8,29.88,South,180,0.7,4.6,84,0.04,RA,FEW,1.20,WeatherDisplay:10.37,2013-04-17 22:40:00,
2013-04-17 17:46:00,45.3,40.8,29.88,SW,225,1.6,3.5,84,0.04,RA,FEW,1.22,WeatherDisplay:10.37,2013-04-17 22:46:00,
2013-04-17 17:52:00,45.3,40.8,29.88,East,90,1.6,3.5,84,0.06,RA,FEW,1.25,WeatherDisplay:10.37,2013-04-17 22:52:00,
2013-04-17 17:57:00,45.3,40.8,29.88,South,180,3.1,5.8,84,0.07,RA,FEW,1.26,WeatherDisplay:10.37,2013-04-17 22:57:00,
2013-04-17 18:03:00,45.3,40.8,29.88,SE,135,0.7,3.5,84,0.11,RA,FEW,1.29,WeatherDisplay:10.37,2013-04-17 23:03:00,
2013-04-17 18:08:00,45.3,40.8,29.87,SE,135,0.7,2.3,84,0.09,RA,FEW,1.29,WeatherDisplay:10.37,2013-04-17 23:08:00,
2013-04-17 18:14:00,45.3,40.8,29.87,SE,135,0.7,2.3,84,0.09,OVC,FEW,1.29,WeatherDisplay:10.37,2013-04-17 23:14:00,
2013-04-17 18:20:00,45.3,40.8,29.83,SE,135,2.2,4.6,84,0.15,RA,FEW,1.36,WeatherDisplay:10.37,2013-04-17 23:20:00,
2013-04-17 18:25:00,45.3,40.8,29.82,SE,135,2.2,4.6,84,0.17,RA,FEW,1.36,WeatherDisplay:10.37,2013-04-17 23:25:00,
2013-04-17 18:31:00,45.3,40.8,29.83,East,90,1.6,4.6,84,0.18,RA,FEW,1.37,WeatherDisplay:10.37,2013-04-17 23:31:00,
2013-04-17 18:36:00,45.3,40.8,29.82,East,90,2.2,5.8,84,0.17,RA,FEW,1.37,WeatherDisplay:10.37,2013-04-17 23:36:00,
2013-04-17 18:42:00,45.3,40.8,29.83,SE,135,2.2,4.6,84,0.15,OVC,FEW,1.37,WeatherDisplay:10.37,2013-04-17 23:42:00,
2013-04-17 18:48:00,45.3,40.8,29.77,NE,45,6.9,11.4,84,0.18,RA,FEW,1.39,WeatherDisplay:10.37,2013-04-17 23:48:00,
2013-04-17 18:53:00,45.3,40.8,29.78,NE,45,7.6,15.0,84,0.17,RA,FEW,1.42,WeatherDisplay:10.37,2013-04-17 23:53:00,
2013-04-17 18:59:00,45.3,40.8,29.81,East,90,2.2,12.7,84,0.17,RA,FEW,1.43,WeatherDisplay:10.37,2013-04-17 23:59:00,
2013-04-17 19:04:00,45.3,40.8,29.79,East,90,5.4,9.2,84,0.14,RA,FEW,1.43,WeatherDisplay:10.37,2013-04-18 00:04:00,
2013-04-17 19:10:00,45.1,40.6,29.77,East,90,3.8,9.2,84,0.17,RA,FEW,1.45,WeatherDisplay:10.37,2013-04-18 00:10:00,
2013-04-17 19:16:00,45.3,40.8,29.77,East,90,1.6,5.8,84,0.17,RA,FEW,1.45,WeatherDisplay:10.37,2013-04-18 00:16:00,
2013-04-17 19:21:00,45.3,40.8,29.77,East,90,1.6,3.5,84,0.09,OVC,FEW,1.45,WeatherDisplay:10.37,2013-04-18 00:21:00,
2013-04-17 19:27:00,46.0,41.5,29.77,SSE,158,3.8,5.8,84,0.11,RA,FEW,1.46,WeatherDisplay:10.37,2013-04-18 00:27:00,
2013-04-17 19:32:00,45.9,41.3,29.77,SE,135,3.1,8.1,84,0.11,RA,FEW,1.48,WeatherDisplay:10.37,2013-04-18 00:32:00,
2013-04-17 19:38:00,45.9,41.3,29.76,East,90,3.8,8.1,84,0.11,RA,FEW,1.48,WeatherDisplay:10.37,2013-04-18 00:38:00,
2013-04-17 19:44:00,46.0,41.5,29.74,NE,45,4.5,10.4,84,0.12,RA,FEW,1.49,WeatherDisplay:10.37,2013-04-18 00:44:00,
2013-04-17 19:49:00,46.2,41.7,29.71,East,90,6.9,10.4,84,0.11,RA,FEW,1.50,WeatherDisplay:10.37,2013-04-18 00:49:00,
2013-04-17 19:55:00,46.0,41.5,29.75,SE,135,4.5,10.4,84,0.08,RA,FEW,1.50,WeatherDisplay:10.37,2013-04-18 00:55:00,
2013-04-17 20:00:00,46.4,41.8,29.74,East,90,1.6,6.9,84,0.07,OVC,FEW,1.50,WeatherDisplay:10.37,2013-04-18 01:00:00,
2013-04-17 20:06:00,46.8,42.2,29.75,NE,45,0.7,3.5,84,0.07,OVC,FEW,1.50,WeatherDisplay:10.37,2013-04-18 01:06:00,
2013-04-17 20:12:00,47.1,42.5,29.76,East,90,0.7,6.9,84,0.05,OVC,FEW,1.50,WeatherDisplay:10.37,2013-04-18 01:12:00,
2013-04-17 20:17:00,47.1,42.5,29.77,East,90,0.7,3.5,84,0.05,OVC,FEW,1.50,WeatherDisplay:10.37,2013-04-18 01:17:00,
2013-04-17 20:23:00,47.1,42.5,29.77,East,90,1.6,3.5,84,0.05,OVC,FEW,1.50,WeatherDisplay:10.37,2013-04-18 01:23:00,
2013-04-17 20:28:00,47.5,42.9,29.77,NE,45,0.7,2.3,84,0.04,OVC,FEW,1.50,WeatherDisplay:10.37,2013-04-18 01:28:00,
2013-04-17 20:34:00,47.5,42.9,29.76,SE,135,0.0,1.2,84,0.02,OVC,FEW,1.50,WeatherDisplay:10.37,2013-04-18 01:34:00,
2013-04-17 20:40:00,47.5,42.9,29.74,SE,135,1.6,3.5,84,0.04,RA,FEW,1.51,WeatherDisplay:10.37,2013-04-18 01:40:00,
2013-04-17 20:45:00,47.7,43.1,29.73,NE,45,2.2,3.8,84,0.02,RA,FEW,1.51,WeatherDisplay:10.37,2013-04-18 01:45:00,
2013-04-17 20:51:00,47.7,43.1,29.73,NE,45,2.2,3.8,84,0.01,OVC,FEW,1.51,WeatherDisplay:10.37,2013-04-18 01:51:00,
2013-04-17 20:56:00,47.7,43.1,29.72,NE,45,1.6,6.9,84,0.01,OVC,FEW,1.52,WeatherDisplay:10.37,2013-04-18 01:56:00,
2013-04-17 21:02:00,47.8,43.2,29.73,East,90,2.2,3.8,84,0.02,RA,FEW,1.52,WeatherDisplay:10.37,2013-04-18 02:02:00,
2013-04-17 21:08:00,48.0,43.4,29.73,East,90,3.8,8.1,84,0.04,RA,FEW,1.54,WeatherDisplay:10.37,2013-04-18 02:08:00,
2013-04-17 21:13:00,48.2,43.6,29.73,East,90,3.1,4.6,84,0.04,RA,FEW,1.54,WeatherDisplay:10.37,2013-04-18 02:13:00,
2013-04-17 21:19:00,48.4,43.8,29.71,East,90,3.8,8.1,84,0.05,RA,FEW,1.55,WeatherDisplay:10.37,2013-04-18 02:19:00,
2013-04-17 21:24:00,48.6,43.9,29.68,NE,45,5.4,9.2,84,0.06,RA,FEW,1.57,WeatherDisplay:10.37,2013-04-18 02:24:00,
2013-04-17 21:30:00,48.7,44.1,29.67,South,180,4.5,10.4,84,0.07,RA,FEW,1.57,WeatherDisplay:10.37,2013-04-18 02:30:00,
2013-04-17 21:36:00,49.8,45.2,29.69,East,90,3.8,5.8,84,0.08,RA,FEW,1.58,WeatherDisplay:10.37,2013-04-18 02:36:00,
2013-04-17 21:41:00,50.2,45.5,29.70,East,90,0.0,8.1,84,0.08,RA,FEW,1.59,WeatherDisplay:10.37,2013-04-18 02:41:00,
2013-04-17 21:47:00,50.2,45.5,29.70,NE,45,2.2,4.6,84,0.08,RA,FEW,1.59,WeatherDisplay:10.37,2013-04-18 02:47:00,
2013-04-17 21:52:00,50.2,45.5,29.65,East,90,6.0,10.4,84,0.09,RA,FEW,1.61,WeatherDisplay:10.37,2013-04-18 02:52:00,
2013-04-17 21:58:00,50.0,45.4,29.66,East,90,2.2,6.9,84,0.08,RA,FEW,1.61,WeatherDisplay:10.37,2013-04-18 02:58:00,
2013-04-17 22:04:00,50.0,45.4,29.69,NE,45,4.5,6.9,84,0.09,RA,FEW,1.62,WeatherDisplay:10.37,2013-04-18 03:04:00,
2013-04-17 22:09:00,50.4,45.7,29.68,NE,45,2.2,4.6,84,0.08,RA,FEW,1.62,WeatherDisplay:10.37,2013-04-18 03:09:00,
2013-04-17 22:15:00,50.4,45.7,29.67,North,0,3.1,6.9,84,0.07,OVC,FEW,1.62,WeatherDisplay:10.37,2013-04-18 03:15:00,
2013-04-17 22:20:00,50.7,46.1,29.65,NE,45,4.5,8.1,84,0.06,OVC,FEW,1.62,WeatherDisplay:10.37,2013-04-18 03:20:00,
2013-04-17 22:26:00,50.9,46.2,29.65,NE,45,3.1,10.4,84,0.05,OVC,FEW,1.62,WeatherDisplay:10.37,2013-04-18 03:26:00,
2013-04-17 22:32:00,50.9,46.2,29.67,East,90,3.8,6.0,84,0.05,OVC,FEW,1.62,WeatherDisplay:10.37,2013-04-18 03:32:00,
2013-04-17 22:37:00,51.1,46.4,29.66,NE,45,3.1,5.8,84,0.04,OVC,FEW,1.62,WeatherDisplay:10.37,2013-04-18 03:37:00,
2013-04-17 22:43:00,51.4,46.8,29.65,East,90,2.2,9.2,84,0.02,OVC,FEW,1.62,WeatherDisplay:10.37,2013-04-18 03:43:00,
2013-04-17 22:48:00,51.6,46.9,29.65,East,90,1.6,3.8,84,0.02,OVC,FEW,1.62,WeatherDisplay:10.37,2013-04-18 03:48:00,
2013-04-17 22:54:00,51.8,47.1,29.65,East,90,3.1,6.0,84,0.02,RA,FEW,1.63,WeatherDisplay:10.37,2013-04-18 03:54:00,
2013-04-17 23:00:00,52.0,47.3,29.65,NE,45,2.2,4.6,84,0.02,RA,FEW,1.63,WeatherDisplay:10.37,2013-04-18 04:00:00,
2013-04-17 23:01:00,52.0,47.3,29.65,NE,45,2.2,5.4,84,0.02,OVC,FEW,1.63,WeatherDisplay:10.37,2013-04-18 04:01:00,
2013-04-17 23:02:00,52.0,47.3,29.65,NE,45,2.2,5.8,84,0.02,OVC,FEW,1.63,WeatherDisplay:10.37,2013-04-18 04:02:00,
2013-04-17 23:03:00,52.0,47.3,29.65,NE,45,2.2,5.8,84,0.02,OVC,FEW,1.63,WeatherDisplay:10.37,2013-04-18 04:03:00,
2013-04-17 23:04:00,52.0,47.3,29.65,NE,45,2.2,5.8,84,0.01,OVC,FEW,1.63,WeatherDisplay:10.37,2013-04-18 04:04:00,
2013-04-17 23:06:00,52.0,47.3,29.65,NE,45,2.2,4.6,84,0.01,OVC,FEW,1.63,WeatherDisplay:10.37,2013-04-18 04:06:00,
2013-04-17 23:12:00,52.0,47.3,29.66,NE,45,1.6,3.5,84,0.01,OVC,FEW,1.63,WeatherDisplay:10.37,2013-04-18 04:12:00,
2013-04-17 23:17:00,52.2,47.5,29.68,NW,315,1.6,3.5,84,0.01,OVC,FEW,1.63,WeatherDisplay:10.37,2013-04-18 04:17:00,
2013-04-17 23:23:00,52.5,47.8,29.70,NW,315,3.1,5.8,84,0.02,RA,FEW,1.64,WeatherDisplay:10.37,2013-04-18 04:23:00,
2013-04-17 23:28:00,51.6,46.9,29.74,West,270,5.4,8.3,84,0.04,RA,FEW,1.65,WeatherDisplay:10.37,2013-04-18 04:28:00,
2013-04-17 23:34:00,50.4,45.7,29.73,NW,315,4.5,15.0,84,0.05,RA,FEW,1.68,WeatherDisplay:10.37,2013-04-18 04:34:00,
2013-04-17 23:40:00,50.0,45.4,29.74,WNW,292,4.5,10.4,84,0.06,RA,FEW,1.69,WeatherDisplay:10.37,2013-04-18 04:40:00,
2013-04-17 23:45:00,49.3,44.6,29.75,NW,315,3.8,10.4,84,0.07,RA,FEW,1.69,WeatherDisplay:10.37,2013-04-18 04:45:00,
2013-04-17 23:51:00,49.1,44.5,29.75,NW,315,6.9,12.1,84,0.08,RA,FEW,1.71,WeatherDisplay:10.37,2013-04-18 04:51:00,
2013-04-17 23:56:00,49.1,44.5,29.75,NW,315,6.9,12.7,84,0.08,RA,FEW,1.77,WeatherDisplay:10.37,2013-04-18 04:56:00,